Weather History for Carroll, IA

Change the Weather History Date:

Monday, January 7, 2013

  Actual Average Record
Temperature  
Mean Temperature 25 °F -  
Max Temperature 35 °F 22 °F 62 °F (2003)
Min Temperature 14 °F 4 °F -23 °F (1968)
Degree Days  
Heating Degree Days 40    
Moisture  
Dew Point 23 °F    
Average Humidity 80    
Maximum Humidity 100    
Minimum Humidity 69    
Precipitation  
Precipitation 0.00 in - - ()
Sea Level Pressure  
Sea Level Pressure 30.00 in    
Wind  
Wind Speed 15 mph (SW)    
Max Wind Speed 31 mph    
Max Gust Speed 40 mph    
Visibility 10 miles    
Events      
Averages and records for this station are not official NWS values.
T = Trace of Precipitation, MM = Missing Value Source: NWS Daily Summary

Daily Weather History Graph

Daily Weather History Graph

Search for Another Location

Airport:

Trip Planner

Search our weather history database for the weather conditions in past years. The results will help you decide how hot, cold, wet, or windy it might be!

Date:

Astronomy

Jan. 07, 2013 Rise Set
Actual Time 7:47 AM CST 5:04 PM CST
Civil Twilight 7:15 AM CST 5:35 PM CST
Nautical Twilight 6:40 AM CST 6:10 PM CST
Astronomical Twilight 6:07 AM CST 6:44 PM CST
Moon 3:10 AM CST (1/7) 1:16 PM CST (1/7)
Length of Visible Light 10h 19m
Length of Day
9h 17m
Waning Crescent, 22% of the Moon is Illuminated
Jan 7
Waning Crescent
Jan 11
New
Jan 18
First Quarter
Jan 26
Full
Feb 3
Last Quarter

Hourly Weather History & Observations

Time (CST) Temp. Windchill Dew Point Humidity Pressure Visibility Wind Dir Wind Speed Gust Speed Precip Events Conditions
12:15 AM 24.8 °F 14.0 °F 19.4 °F 80% 30.10 in 10.0 mi SSW 11.5 mph - N/A   Clear
12:35 AM 26.6 °F 13.8 °F 19.4 °F 74% 30.09 in 10.0 mi SSW 17.3 mph - N/A   Clear
12:55 AM 26.6 °F 13.8 °F 19.4 °F 74% 30.09 in 10.0 mi SSW 17.3 mph - N/A   Clear
1:15 AM 26.6 °F 13.8 °F 19.4 °F 74% 30.08 in 10.0 mi South 17.3 mph - N/A   Clear
1:35 AM 26.6 °F 15.2 °F 19.4 °F 74% 30.09 in 10.0 mi SSW 13.8 mph 21.9 mph N/A   Clear
1:55 AM 24.8 °F 12.4 °F 19.4 °F 80% 30.08 in 10.0 mi South 15.0 mph - N/A   Clear
2:15 AM 24.8 °F 13.4 °F 19.4 °F 80% 30.08 in 10.0 mi South 12.7 mph - N/A   Clear
2:35 AM 26.6 °F 12.4 °F 19.4 °F 74% 30.07 in 10.0 mi South 21.9 mph - N/A   Clear
2:55 AM 28.4 °F 14.4 °F 21.2 °F 74% 30.06 in 10.0 mi South 23.0 mph - N/A   Clear
3:15 AM 26.6 °F 12.7 °F 19.4 °F 74% 30.06 in 10.0 mi South 20.7 mph 27.6 mph N/A   Clear
3:35 AM 28.4 °F 15.1 °F 21.2 °F 74% 30.05 in 10.0 mi SSW 20.7 mph 27.6 mph N/A   Clear
3:55 AM 28.4 °F 14.4 °F 21.2 °F 74% 30.04 in 10.0 mi SSW 23.0 mph - N/A   Clear
4:15 AM 28.4 °F 15.4 °F 21.2 °F 74% 30.03 in 10.0 mi SSW 19.6 mph 26.5 mph N/A   Clear
4:35 AM 30.2 °F 17.4 °F 21.2 °F 69% 30.02 in 10.0 mi SSW 20.7 mph 26.5 mph N/A   Clear
4:55 AM 30.2 °F 16.5 °F 21.2 °F 69% 30.00 in 10.0 mi SSW 24.2 mph 29.9 mph N/A   Clear
5:15 AM 30.2 °F 15.7 °F 23.0 °F 75% 29.98 in 10.0 mi SSW 27.6 mph - N/A   Clear
5:35 AM 32.0 °F 18.1 °F 23.0 °F 69% 29.96 in 10.0 mi SSW 27.6 mph 35.7 mph N/A   Clear
6:35 AM 32.0 °F 17.4 °F 23.0 °F 69% 29.94 in 10.0 mi SSW 31.1 mph 40.3 mph N/A   Clear
6:55 AM 32.0 °F 18.1 °F 23.0 °F 69% 29.95 in 10.0 mi SSW 27.6 mph 36.8 mph N/A   Clear
7:15 AM 32.0 °F 18.1 °F 23.0 °F 69% 29.96 in 10.0 mi SSW 27.6 mph 36.8 mph N/A   Clear
7:35 AM 32.0 °F 18.6 °F 23.0 °F 69% 29.97 in 10.0 mi SSW 25.3 mph 33.4 mph N/A   Clear
7:55 AM 32.0 °F 19.5 °F 23.0 °F 69% 29.99 in 10.0 mi SW 21.9 mph 28.8 mph N/A   Clear
8:15 AM 32.0 °F 21.2 °F 23.0 °F 69% 30.00 in 10.0 mi SW 16.1 mph 24.2 mph N/A   Clear
8:35 AM 32.0 °F 19.8 °F 23.0 °F 69% 30.00 in 10.0 mi SW 20.7 mph - N/A   Clear
8:55 AM 32.0 °F 19.5 °F 23.0 °F 69% 29.99 in 10.0 mi SSW 21.9 mph 29.9 mph N/A   Clear
9:15 AM 32.0 °F 19.5 °F 23.0 °F 69% 29.99 in 10.0 mi SSW 21.9 mph - N/A   Clear
9:35 AM 32.0 °F 20.8 °F 24.8 °F 75% 30.01 in 10.0 mi SSW 17.3 mph - N/A   Clear
9:55 AM 32.0 °F 20.1 °F 24.8 °F 75% 30.02 in 10.0 mi SW 19.6 mph - N/A   Clear
10:15 AM 32.0 °F 20.5 °F 24.8 °F 75% 30.02 in 10.0 mi SW 18.4 mph - N/A   Clear
10:35 AM 33.8 °F 23.2 °F 24.8 °F 70% 30.02 in 10.0 mi SW 17.3 mph - N/A   Clear
10:55 AM 33.8 °F 22.5 °F 26.6 °F 75% 30.01 in 10.0 mi SW 19.6 mph - N/A   Clear
11:15 AM 33.8 °F 23.2 °F 26.6 °F 75% 30.00 in 10.0 mi SW 17.3 mph - N/A   Clear
11:35 AM 35.6 °F 27.1 °F 26.6 °F 70% 30.00 in 10.0 mi SSW 12.7 mph 18.4 mph N/A   Clear
11:55 AM 35.6 °F 26.2 °F 26.6 °F 70% 29.99 in 10.0 mi SW 15.0 mph - N/A   Clear
12:15 PM 35.6 °F 25.2 °F 26.6 °F 70% 29.98 in 10.0 mi SW 18.4 mph - N/A   Clear
12:35 PM 35.6 °F 26.2 °F 28.4 °F 75% 29.97 in 10.0 mi SW 15.0 mph 20.7 mph N/A   Clear
1:15 PM 35.6 °F 27.1 °F 28.4 °F 75% 29.97 in 10.0 mi SW 12.7 mph - N/A   Clear
1:35 PM 35.6 °F 26.6 °F 28.4 °F 75% 29.97 in 10.0 mi WSW 13.8 mph - N/A   Clear
1:55 PM 35.6 °F 27.5 °F 28.4 °F 75% 29.96 in 10.0 mi WSW 11.5 mph 19.6 mph N/A   Clear
2:15 PM 35.6 °F 27.1 °F 28.4 °F 75% 29.97 in 10.0 mi WSW 12.7 mph - N/A   Clear
2:55 PM 35.6 °F 28.0 °F 28.4 °F 75% 29.98 in 10.0 mi WSW 10.4 mph - N/A   Clear
3:15 PM 35.6 °F 28.6 °F 28.4 °F 75% 29.98 in 10.0 mi WSW 9.2 mph - N/A   Clear
3:35 PM 35.6 °F 29.9 °F 30.2 °F 81% 29.98 in 10.0 mi WSW 6.9 mph - N/A   Clear
3:55 PM 35.6 °F 29.9 °F 30.2 °F 81% 29.99 in 10.0 mi WSW 6.9 mph - N/A   Clear
4:15 PM 33.8 °F 29.6 °F 30.2 °F 87% 29.99 in 10.0 mi WSW 4.6 mph - N/A   Clear
4:35 PM 33.8 °F 29.6 °F 28.4 °F 81% 29.99 in 10.0 mi WSW 4.6 mph - N/A   Clear
5:15 PM 32.0 °F 28.7 °F 28.4 °F 87% 29.98 in 7.0 mi WSW 3.5 mph - N/A   Clear
5:35 PM 30.2 °F 26.7 °F 26.6 °F 86% 29.99 in 10.0 mi NW 3.5 mph - N/A   Clear
5:55 PM 28.4 °F 24.6 °F 26.6 °F 93% 29.99 in 10.0 mi NNW 3.5 mph - N/A   Clear
6:15 PM 28.4 °F - 28.4 °F 100% 29.99 in 10.0 mi Calm Calm - N/A   Clear
6:35 PM 26.6 °F - 24.8 °F 93% 30.00 in 10.0 mi Calm Calm - N/A   Clear
6:55 PM 26.6 °F - 23.0 °F 86% 30.00 in 10.0 mi Calm Calm - N/A   Clear
7:15 PM 23.0 °F - 21.2 °F 93% 30.00 in 10.0 mi Calm Calm - N/A   Clear
7:35 PM 24.8 °F - 24.8 °F 100% 30.00 in 10.0 mi Calm Calm - N/A   Clear
7:55 PM 23.0 °F - 21.2 °F 93% 30.00 in 10.0 mi Calm Calm - N/A   Clear
8:15 PM 21.2 °F - 19.4 °F 93% 30.00 in 10.0 mi Calm Calm - N/A   Clear
8:35 PM 21.2 °F - 21.2 °F 100% 29.99 in 9.0 mi Calm Calm - N/A   Clear
8:55 PM 23.0 °F 13.1 °F 21.2 °F 93% 29.99 in - South 9.2 mph - N/A   Unknown
9:35 PM 23.0 °F - 21.2 °F 93% 29.98 in 10.0 mi Calm Calm - N/A   Clear
9:55 PM 21.2 °F - 19.4 °F 93% 29.98 in 8.0 mi Calm Calm - N/A   Clear
10:15 PM 19.4 °F 14.3 °F 17.6 °F 93% 29.98 in 6.0 mi NNW 3.5 mph - N/A   Clear
10:35 PM 17.6 °F - 17.6 °F 100% 29.99 in 10.0 mi Calm Calm - N/A   Clear
10:55 PM 19.4 °F - 19.4 °F 100% 29.98 in 4.0 mi Calm Calm - N/A   Clear
11:15 PM 19.4 °F - 17.6 °F 93% 29.98 in 2.5 mi Calm Calm - N/A   Clear
11:35 PM 15.8 °F - 14.0 °F 93% 29.98 in 3.0 mi Calm Calm - N/A   Clear
11:55 PM 14.0 °F - 12.2 °F 93% 29.98 in 7.0 mi Calm Calm - N/A   Clear